Historique des stations

Station météo de Aubigny-sur-Nère

Altitude de la station : 197 m







Données météorologiques pour le 21/05/2022
Date
Heure
Températures Humidité Point de rosée Vitesse
du vent
Direction Rafales Windchill Pression Pluviométrie
Cumul
Date
Heure
Températures Humidité Point de rosée Vitesse
du vent
Direction Rafales Windchill Pression Pluviométrie
Cumul
21/05/2022 16:4726.3 °C20 %1.7 °C-SE6 km/h26.1 1015 hPa-
21/05/2022 16:4526.2 °C20 %1.7 °C2 km/hSSE21 km/h26.1 1014 hPa-
21/05/2022 16:3225.7 °C21 %1.7 °C5 km/hE14 km/h25.6 1015 hPa-
21/05/2022 16:3025.9 °C19 %0.6 °C3 km/hE21 km/h26.1 1015 hPa-
21/05/2022 16:1726.2 °C22 %2.8 °C-SSE11 km/h26.1 1015 hPa-
21/05/2022 16:1525.7 °C21 %1.7 °C-SE21 km/h25.6 1015 hPa-
21/05/2022 16:0225.7 °C22 %2.2 °C5 km/hENE8 km/h25.6 1015 hPa-
21/05/2022 16:0025.3 °C21 %1.7 °C-ESE21 km/h25.6 1015 hPa-
21/05/2022 15:4726.1 °C21 %2.2 °C13 km/hESE13 km/h25.6 1015 hPa-
21/05/2022 15:4525.8 °C22 %2.8 °C-E21 km/h26.1 1015 hPa-
21/05/2022 15:3225.0 °C22 %1.7 °C2 km/hNE13 km/h25.0 1016 hPa-
21/05/2022 15:3024.9 °C23 %2.2 °C5 km/hNE21 km/h25.0 1015 hPa-
21/05/2022 15:1724.9 °C23 %2.2 °C6 km/hENE11 km/h25.0 1016 hPa-
21/05/2022 15:1524.9 °C23 %2.2 °C11 km/hENE21 km/h24.4 1016 hPa-
21/05/2022 15:0224.9 °C22 %1.7 °C2 km/hNE11 km/h25.0 1016 hPa-
21/05/2022 14:5925.1 °C22 %1.7 °C5 km/hENE21 km/h25.0 1016 hPa-
21/05/2022 14:4724.1 °C22 %1.1 °C3 km/hNE16 km/h23.9 1016 hPa-
21/05/2022 14:4424.4 °C22 %1.1 °C2 km/hESE21 km/h24.4 1016 hPa-
21/05/2022 14:3224.7 °C23 %2.2 °C8 km/hNE14 km/h24.4 1016 hPa-
21/05/2022 14:2824.5 °C24 %2.8 °C3 km/hESE21 km/h24.4 1016 hPa-
21/05/2022 14:1723.9 °C24 %2.2 °C10 km/hE18 km/h23.9 1016 hPa-
21/05/2022 14:1423.9 °C23 %1.7 °C3 km/hESE21 km/h23.9 1016 hPa-
21/05/2022 14:0124.3 °C24 %2.2 °C5 km/hNE16 km/h24.4 1016 hPa-
21/05/2022 13:5924.6 °C25 %3.3 °C10 km/hE21 km/h24.4 1016 hPa-
21/05/2022 13:4724.2 °C24 %2.2 °C8 km/hNE11 km/h24.4 1017 hPa-
21/05/2022 13:4524.4 °C22 %1.1 °C3 km/hE21 km/h24.4 1017 hPa-
21/05/2022 13:3224.4 °C25 %3.3 °C2 km/hS14 km/h24.4 1017 hPa-
21/05/2022 13:3024.1 °C25 %2.8 °C3 km/hS21 km/h23.9 1017 hPa-
21/05/2022 13:1723.2 °C26 %2.8 °C10 km/hESE16 km/h23.3 1017 hPa-
21/05/2022 13:1523.2 °C26 %2.8 °C5 km/hSSO21 km/h23.3 1017 hPa-
21/05/2022 13:0223.3 °C28 %3.9 °C5 km/hE10 km/h23.3 1017 hPa-
21/05/2022 13:0023.1 °C25 %2.2 °C5 km/hNE21 km/h23.3 1017 hPa-
21/05/2022 12:4722.7 °C28 %3.3 °C2 km/hNE14 km/h22.8 1017 hPa-
21/05/2022 12:4522.5 °C28 %3.3 °C3 km/hENE21 km/h22.8 1017 hPa-
21/05/2022 12:3222.7 °C26 %2.2 °C3 km/hENE14 km/h22.8 1017 hPa-
21/05/2022 12:3022.9 °C26 %2.2 °C5 km/hESE21 km/h22.8 1017 hPa-
21/05/2022 12:1722.2 °C29 %3.3 °C8 km/hENE13 km/h22.2 1018 hPa-
21/05/2022 12:1522.1 °C30 %3.9 °C5 km/hE21 km/h22.2 1018 hPa-
21/05/2022 12:0222.2 °C29 %3.3 °C5 km/hESE18 km/h22.2 1018 hPa-
21/05/2022 12:0022.1 °C28 %2.8 °C5 km/hESE21 km/h22.2 1018 hPa-
21/05/2022 11:4722.1 °C28 %2.8 °C10 km/hESE16 km/h22.2 1018 hPa-
21/05/2022 11:4522.1 °C30 %3.9 °C8 km/hE21 km/h22.2 1018 hPa-
21/05/2022 11:3221.4 °C32 %3.9 °C8 km/hENE18 km/h21.7 1018 hPa-
21/05/2022 11:3021.4 °C33 %4.4 °C-ENE21 km/h21.7 1018 hPa-
21/05/2022 11:1721.2 °C31 %3.3 °C14 km/hE18 km/h20.0 1018 hPa-
21/05/2022 11:1521.2 °C31 %3.3 °C11 km/hESE21 km/h20.6 1018 hPa-
21/05/2022 11:0221.0 °C34 %4.4 °C8 km/hE19 km/h21.1 1018 hPa-
21/05/2022 11:0021.0 °C34 %4.4 °C8 km/hENE21 km/h21.1 1018 hPa-
21/05/2022 10:4720.4 °C36 %5.0 °C14 km/hESE21 km/h19.4 1018 hPa-
21/05/2022 10:4520.4 °C36 %5.0 °C11 km/hENE21 km/h20.0 1018 hPa-
21/05/2022 10:3320.2 °C36 %4.4 °C14 km/hENE19 km/h18.9 1018 hPa-
21/05/2022 10:3020.3 °C37 %5.0 °C8 km/hNE19 km/h20.6 1018 hPa-
21/05/2022 10:1820.1 °C38 %5.0 °C6 km/hNNE16 km/h20.0 1018 hPa-
21/05/2022 10:1519.9 °C38 %5.0 °C5 km/hE18 km/h20.0 1018 hPa-
21/05/2022 10:0319.7 °C37 %4.4 °C10 km/hESE18 km/h20.0 1018 hPa-
21/05/2022 10:0019.7 °C38 %5.0 °C8 km/hENE16 km/h19.4 1018 hPa-
21/05/2022 09:4719.2 °C38 %4.4 °C6 km/hENE16 km/h19.4 1018 hPa-
21/05/2022 09:4419.1 °C38 %4.4 °C6 km/hESE16 km/h18.9 1018 hPa-
21/05/2022 09:3218.9 °C40 %5.0 °C10 km/hE16 km/h18.9 1018 hPa-
21/05/2022 09:2918.8 °C41 %5.0 °C11 km/hESE16 km/h18.3 1018 hPa-
21/05/2022 09:1718.4 °C43 %5.6 °C10 km/hESE14 km/h18.3 1018 hPa-
21/05/2022 09:1518.3 °C43 %5.6 °C11 km/hESE14 km/h17.8 1018 hPa-
21/05/2022 09:0217.8 °C46 %6.1 °C3 km/hENE11 km/h17.8 1018 hPa-
21/05/2022 09:0017.7 °C46 %6.1 °C6 km/hE13 km/h17.8 1018 hPa-
21/05/2022 08:4717.1 °C48 %6.1 °C5 km/hESE13 km/h17.2 1018 hPa-
21/05/2022 08:4516.9 °C48 %5.6 °C5 km/hESE11 km/h17.2 1018 hPa-
21/05/2022 08:3216.2 °C49 %5.6 °C3 km/hESE6 km/h16.1 1018 hPa-
21/05/2022 08:3016.1 °C49 %5.0 °C2 km/hESE10 km/h16.1 1018 hPa-
21/05/2022 08:1715.2 °C49 %4.4 °C2 km/hESE5 km/h15.0 1018 hPa-
21/05/2022 08:1515.1 °C50 %4.4 °C5 km/hESE10 km/h15.0 1018 hPa-
21/05/2022 08:0214.2 °C51 %3.9 °C3 km/hESE8 km/h14.4 1018 hPa-
21/05/2022 08:0014.1 °C51 %3.9 °C2 km/hSE10 km/h13.9 1018 hPa-
21/05/2022 07:4713.4 °C52 %3.3 °C2 km/hSE5 km/h13.3 1018 hPa-
21/05/2022 07:4513.3 °C52 %3.3 °C3 km/hSE10 km/h13.3 1018 hPa-
21/05/2022 07:3212.6 °C52 %2.8 °C5 km/hSE10 km/h12.8 1018 hPa-
21/05/2022 07:3012.5 °C52 %2.8 °C2 km/hSE10 km/h12.8 1018 hPa-
21/05/2022 07:1711.9 °C52 %2.2 °C5 km/hSSE6 km/h12.2 1019 hPa-
21/05/2022 07:1511.9 °C52 %2.2 °C5 km/hSE8 km/h11.7 1019 hPa-
21/05/2022 07:0211.6 °C53 %2.2 °C5 km/hSE8 km/h11.7 1019 hPa-
21/05/2022 07:0011.6 °C53 %2.2 °C5 km/hSE8 km/h11.7 1019 hPa-
21/05/2022 06:4711.3 °C52 %1.7 °C5 km/hSSE8 km/h11.1 1019 hPa-
21/05/2022 06:4511.2 °C52 %1.7 °C5 km/hSSE8 km/h11.1 1019 hPa-
21/05/2022 06:3211.2 °C53 %1.7 °C5 km/hSE8 km/h11.1 1019 hPa-
21/05/2022 06:3011.1 °C53 %1.7 °C5 km/hSE8 km/h11.1 1019 hPa-
21/05/2022 06:1711.1 °C52 %1.7 °C3 km/hSE8 km/h11.1 1019 hPa-
21/05/2022 06:1511.1 °C52 %1.7 °C2 km/hSE8 km/h11.1 1019 hPa-
21/05/2022 06:0211.1 °C52 %1.7 °C3 km/hSE5 km/h11.1 1019 hPa-
21/05/2022 06:0011.1 °C52 %1.7 °C2 km/hSE8 km/h11.1 1019 hPa-
21/05/2022 05:4711.2 °C53 %1.7 °C-SE5 km/h11.1 1019 hPa-
21/05/2022 05:4511.2 °C53 %1.7 °C3 km/hSE8 km/h11.1 1019 hPa-
21/05/2022 05:3211.3 °C53 %2.2 °C2 km/hSE5 km/h11.1 1019 hPa-
21/05/2022 05:3011.4 °C53 %2.2 °C2 km/hSE8 km/h11.7 1019 hPa-
21/05/2022 05:1711.4 °C53 %2.2 °C2 km/hSE6 km/h11.7 1019 hPa-
21/05/2022 05:1511.4 °C53 %2.2 °C5 km/hSE8 km/h11.7 1019 hPa-
21/05/2022 05:0211.4 °C53 %2.2 °C5 km/hSE5 km/h11.7 1019 hPa-
21/05/2022 04:5911.4 °C53 %2.2 °C3 km/hSE8 km/h11.7 1019 hPa-
21/05/2022 04:4711.5 °C54 %2.2 °C3 km/hSE5 km/h11.7 1019 hPa-
21/05/2022 04:4511.5 °C54 %2.2 °C3 km/hSE8 km/h11.7 1019 hPa-
21/05/2022 04:3111.6 °C54 %2.2 °C5 km/hSE5 km/h11.7 1019 hPa-
21/05/2022 04:3011.6 °C54 %2.2 °C3 km/hSE8 km/h11.7 1019 hPa-
21/05/2022 04:1611.6 °C54 %2.2 °C3 km/hSE6 km/h11.7 1019 hPa-
21/05/2022 04:1411.6 °C54 %2.2 °C5 km/hSE8 km/h11.7 1019 hPa-
21/05/2022 04:0111.7 °C54 %2.8 °C3 km/hSE6 km/h11.7 1019 hPa-
21/05/2022 03:5911.7 °C54 %2.8 °C5 km/hSE8 km/h11.7 1019 hPa-
21/05/2022 03:4611.8 °C54 %2.8 °C3 km/hSE6 km/h11.7 1019 hPa-
21/05/2022 03:4411.8 °C54 %2.8 °C3 km/hSE8 km/h11.7 1019 hPa-
21/05/2022 03:3111.8 °C54 %2.8 °C3 km/hSSE6 km/h11.7 1019 hPa-
21/05/2022 03:2911.8 °C54 %2.8 °C3 km/hSE6 km/h11.7 1019 hPa-
21/05/2022 03:1612.0 °C55 %3.3 °C2 km/hSE6 km/h12.2 1019 hPa-
21/05/2022 03:1412.1 °C55 %3.3 °C5 km/hSE6 km/h12.2 1019 hPa-
21/05/2022 03:0112.2 °C55 %3.3 °C3 km/hSE6 km/h12.2 1019 hPa-
21/05/2022 02:5912.2 °C55 %3.3 °C5 km/hSE6 km/h12.2 1019 hPa-
21/05/2022 02:4612.3 °C55 %3.3 °C5 km/hSE6 km/h12.2 1019 hPa-
21/05/2022 02:4512.3 °C55 %3.3 °C5 km/hSE6 km/h12.2 1019 hPa-
21/05/2022 02:3112.4 °C56 %3.9 °C-SE5 km/h12.2 1019 hPa-
21/05/2022 02:3012.4 °C56 %3.9 °C-SE6 km/h12.2 1019 hPa-
21/05/2022 02:1612.6 °C56 %3.9 °C2 km/hSE5 km/h12.8 1019 hPa-
21/05/2022 02:1512.6 °C56 %3.9 °C3 km/hSE6 km/h12.8 1019 hPa-
21/05/2022 02:0112.8 °C56 %3.9 °C-ESE5 km/h12.8 1019 hPa-
21/05/2022 02:0012.8 °C56 %3.9 °C2 km/hESE6 km/h12.8 1019 hPa-
21/05/2022 01:4613.1 °C56 %4.4 °C3 km/hESE6 km/h13.3 1019 hPa-
21/05/2022 01:4513.1 °C56 %4.4 °C3 km/hESE6 km/h13.3 1019 hPa-
21/05/2022 01:3113.3 °C56 %4.4 °C2 km/hENE5 km/h13.3 1019 hPa-
21/05/2022 01:3013.4 °C56 %4.4 °C2 km/hENE5 km/h13.3 1019 hPa-
21/05/2022 01:1513.7 °C57 %5.0 °C-ENE5 km/h13.9 1019 hPa-
21/05/2022 01:0113.9 °C57 %5.6 °C-ENE3 km/h13.9 1020 hPa-
21/05/2022 00:5914.0 °C57 %5.6 °C2 km/hENE5 km/h13.9 1020 hPa-
21/05/2022 00:4614.3 °C57 %5.6 °C2 km/hENE3 km/h14.4 1020 hPa-
21/05/2022 00:4414.3 °C57 %5.6 °C-ENE5 km/h14.4 1019 hPa-
21/05/2022 00:3114.6 °C57 %6.1 °C2 km/hENE5 km/h14.4 1020 hPa-
21/05/2022 00:3014.6 °C57 %6.1 °C3 km/hENE5 km/h14.4 1020 hPa-
21/05/2022 00:1614.8 °C57 %6.1 °C-NE3 km/h15.0 1020 hPa-
21/05/2022 00:1514.9 °C57 %6.1 °C-NE3 km/h15.0 1020 hPa-
21/05/2022 00:0315.1 °C57 %6.7 °C-NE3 km/h15.0 1020 hPa-
21/05/2022 00:0015.1 °C57 %6.7 °C---15.0 1020 hPa-


Minima :

Température : 11.1 °C
Humidité : 19 %
Point de rosée : 0.6 °C
Vent moyen : 2 km/h
Windchill : 11.1
Pression atm. : 1014 hPa
Maxima :

Température : 26.3 °C
Humidité : 57 %
Point de rosée : 6.7 °C
Vent moyen : 14 km/h
Windchill : 26.1
Pression atm. : 1020 hPa
Rafales max : 21 km/h
Cumul de pluie sur 24H : 0 mm

Aubigny-sur-Nère est une commune du département Cher (18).
La station météorologique du réseau de l'association la plus proche de Aubigny-sur-Nère est celle de Salbris



Icône Facebook Association Météo Centre Icône Twitter Association Météo Centre Icône Chaîne Youtube Association Météo Centre Icône contact Association Météo Centre Icône Insta Association Météo Centre